yhrl.com alexa rank chart, yhrl.com alexa rank daily changes

yhrl.com alexa rank chart, yhrl.com alexa rank daily changes

yhrl.com
Actual rank:
165 858

RANK HISTORY

Date Rank Diff
2017/05/28 165 858 +2 864
2017/05/27 162 994 +2 385
2017/05/26 160 609 +3 832
2017/05/25 156 777 +1 000
2017/05/24 155 777 -4 823
2017/05/23 160 600 +6 558
2017/05/22 154 042 -173
2017/05/21 154 215 +2 272
2017/05/20 151 943 +2 580
2017/05/19 149 363 +1 296
2017/05/18 148 067 -2 039
2017/05/17 150 106 +3 837
2017/05/16 146 269 +3 886
2017/05/15 142 383 +5 906
2017/05/14 136 477 -951
2017/05/13 137 428 +129
2017/05/12 137 299 -2 054
2017/05/11 139 353 -2 788
2017/05/10 142 141 +6 252
2017/05/09 135 889 +9 238
2017/05/08 126 651 +3 339
2017/05/07 123 312 +9 981
2017/05/06 113 331 +1 471
2017/05/05 111 860 -125
2017/05/04 111 985 -6 880
2017/05/03 118 865 +1 264
2017/05/02 117 601 +4 589
2017/05/01 113 012 -6 096
2017/04/30 119 108 +4 490
2017/04/29 114 618 +798
2017/04/28 113 820 -1 188
2017/04/27 115 008 -2 438
2017/04/26 117 446 +5 214
2017/04/25 112 232 +20
2017/04/24 112 212 +2 575
2017/04/23 109 637 -998
2017/04/22 110 635 +3 738
2017/04/21 106 897 +531
2017/04/20 106 366 +2 117
2017/04/19 104 249 +1 999
2017/04/18 102 250 -2 191
2017/04/17 104 441 +1 509
2017/04/16 102 932 -87
2017/04/15 103 019 -4 827
2017/04/14 107 846 -3 155
2017/04/13 111 001 -1 797
2017/04/12 112 798 +848
2017/04/11 111 950 +1 792
2017/04/10 110 158 -4 296
2017/04/09 114 454 -5 736
2017/04/08 120 190 -4 116
2017/04/07 124 306 -5 789
2017/04/06 130 095 +4 497
2017/04/05 125 598 -444
2017/04/04 126 042 +4 780
2017/04/03 121 262 +708
2017/04/02 120 554 -523
2017/04/01 121 077 +3 312
2017/03/31 117 765 -328
2017/03/30 118 093 -1 866
2017/03/29 119 959

WIDGET FOR YOUR SITE

DOMAINS WITH THE NEAREST RANK

Domain Rank
romanpichler.com 165 853
antinovaordemmundial.com 165 854
promt.ru 165 855
barbecuebible.com 165 856
ph-heidelberg.de 165 857
yhrl.com 165 858
jornaldotempo.uol.com.br 165 859
umbraco.com 165 860
shaklee2u.com.my 165 861
2ndgradeworksheets.net 165 862
joyzen.co.kr 165 863

DOMAINS WITH THE NEAREST RANK BY TLD .com

Domain Rank
ruby-toolbox.com 165 849
dailyeconomic.com 165 852
romanpichler.com 165 853
antinovaordemmundial.com 165 854
barbecuebible.com 165 856
yhrl.com 165 858
umbraco.com 165 860
123seminarsonly.com 165 864
footendirect.com 165 867
mzhiphop.com 165 870
helpforest.com 165 871